This is the latest recevied weather packets stored in our database for station/object OE-11140. If no packets are shown the sender has not sent any weather packets the latest 10 day(s).
| Time | Temp. | Humidity | Pressure | Rain* | Wind** | Luminosity | Snow |
|---|---|---|---|---|---|---|---|
| 1787913689 | 31.67° C | 37% | 1006.2 hPa | 0 mm | - | 755 W/m² | - |
| 1787913316 | 31.11° C | 40% | 1006.1 hPa | 0 mm | - | 709 W/m² | - |
| 1787912716 | 30.56° C | 41% | 1006.2 hPa | 0 mm | - | 702 W/m² | - |
| 1787911889 | 30° C | 40% | 1006.6 hPa | 0 mm | - | 702 W/m² | - |
| 1787911516 | 29.44° C | 41% | 1006.9 hPa | 0 mm | - | 689 W/m² | - |
| 1787910915 | 28.89° C | 41% | 1007 hPa | 0 mm | - | 676 W/m² | - |
| 1787910089 | 28.89° C | 44% | 1006.9 hPa | 0 mm | - | 656 W/m² | - |
| 1787909716 | 28.33° C | 46% | 1007.2 hPa | 0 mm | - | 643 W/m² | - |
| 1787909116 | 27.78° C | 47% | 1007.9 hPa | 0 mm | - | 623 W/m² | - |
| 1787908288 | 27.22° C | 47% | 1008 hPa | 0 mm | - | 610 W/m² | - |
| 1787907916 | 26.67° C | 50% | 1008.3 hPa | 0 mm | - | 603 W/m² | - |
| 1787907316 | 26.11° C | 53% | 1009 hPa | 0 mm | - | 477 W/m² | - |
| 1787906488 | 25.56° C | 53% | 1009.4 hPa | 0 mm | - | 603 W/m² | - |
| 1787906114 | 25.56° C | 54% | 1009.6 hPa | 0 mm | - | 537 W/m² | - |
| 1787905514 | 25° C | 54% | 1009.9 hPa | 0 mm | - | 490 W/m² | - |
| 1787904689 | 23.89° C | 57% | 1010.1 hPa | 0 mm | - | 471 W/m² | - |
| 1787904316 | 23.33° C | 60% | 1010.2 hPa | 0 mm | - | 444 W/m² | - |
| 1787903716 | 22.78° C | 61% | 1010.5 hPa | 0 mm | - | 404 W/m² | - |
| 1787902888 | 22.78° C | 62% | 1010.4 hPa | 0 mm | - | 378 W/m² | - |
| 1787902516 | 22.22° C | 64% | 1010.8 hPa | 0 mm | - | 252 W/m² | - |
| 1787901916 | 21.67° C | 65% | 1010.8 hPa | 0 mm | - | 232 W/m² | - |
| 1787901088 | 22.22° C | 65% | 1010.6 hPa | 0 mm | - | 384 W/m² | - |
| 1787900715 | 21.11° C | 68% | 1011 hPa | 0 mm | - | 278 W/m² | - |
| 1787900116 | 20.56° C | 70% | 1011.2 hPa | 0 mm | - | 139 W/m² | - |
| 1787899289 | 19.44° C | 71% | 1011.5 hPa | 0 mm | - | 119 W/m² | - |
* Rain latest hour (hover to see other rain measurements)
** Current wind speed in m/s (hover to see current wind gust speed)